Time;durP1;ratioP1;P1;durP2;ratioP2;P2;SDS_P1;SDS_P2;PMS_P1;PMS_P2;Temp;Humidity;BMP_temperature;BMP_pressure;BME280_temperature;BME280_humidity;BME280_pressure;Samples;Min_cycle;Max_cycle;Signal;HPM_P1;HPM_P2
2023/03/28 00:01:31;;;;;;;16.67;5.53;;;2.50;99.90;;;;;;7284392;19;20185;-77
2023/03/28 00:03:56;;;;;;;15.90;5.10;;;2.30;99.90;;;;;;7305949;19;20196;-77
2023/03/28 00:06:25;;;;;;;18.33;5.30;;;2.40;99.90;;;;;;7283916;19;20184;-76
2023/03/28 00:08:51;;;;;;;16.43;5.13;;;2.40;99.90;;;;;;7283015;19;20185;-77
2023/03/28 00:11:19;;;;;;;17.83;5.23;;;2.30;99.90;;;;;;7284685;19;20186;-76
2023/03/28 00:14:02;;;;;;;20.97;5.50;;;2.30;99.90;;;;;;7283649;19;20189;-76
2023/03/28 00:16:33;;;;;;;15.87;5.07;;;2.20;99.90;;;;;;7281946;19;20184;-75
2023/03/28 00:19:04;;;;;;;17.03;5.67;;;2.20;99.90;;;;;;7296614;19;20193;-75
2023/03/28 00:21:33;;;;;;;16.13;5.30;;;2.20;99.90;;;;;;7285811;19;20185;-75
2023/03/28 00:24:02;;;;;;;16.77;5.50;;;2.10;99.90;;;;;;7297671;19;20321;-76
2023/03/28 00:26:31;;;;;;;14.10;5.10;;;2.00;99.90;;;;;;7309473;19;20551;-76
2023/03/28 00:29:00;;;;;;;18.40;5.47;;;2.00;99.90;;;;;;7311548;19;20216;-76
2023/03/28 00:31:26;;;;;;;17.17;5.30;;;1.90;99.90;;;;;;7291477;19;20181;-77
2023/03/28 00:33:52;;;;;;;19.60;5.63;;;1.90;99.90;;;;;;7289658;19;20191;-76
2023/03/28 00:36:25;;;;;;;17.13;5.80;;;1.90;99.90;;;;;;7291029;19;20189;-76
2023/03/28 00:39:00;;;;;;;18.43;5.53;;;2.00;99.90;;;;;;7290304;19;20261;-76
2023/03/28 00:41:31;;;;;;;18.37;5.90;;;1.90;99.90;;;;;;7288938;19;20558;-76
2023/03/28 00:43:58;;;;;;;16.70;5.23;;;2.00;99.90;;;;;;7289853;19;20258;-78
2023/03/28 00:46:34;;;;;;;14.60;5.03;;;2.00;99.90;;;;;;7291011;19;20522;-76
2023/03/28 00:49:14;;;;;;;15.23;4.70;;;1.90;99.90;;;;;;7266885;19;20235;-76
2023/03/28 00:51:48;;;;;;;15.40;4.90;;;1.80;99.90;;;;;;7290423;19;20670;-77
2023/03/28 00:54:18;;;;;;;18.93;4.93;;;1.90;99.90;;;;;;7288104;19;20193;-77
2023/03/28 00:56:47;;;;;;;17.40;4.77;;;1.90;99.90;;;;;;7290215;19;20190;-78
2023/03/28 00:59:17;;;;;;;14.07;4.30;;;1.70;99.90;;;;;;7289532;19;20208;-77
2023/03/28 01:01:44;;;;;;;16.47;4.60;;;1.70;99.90;;;;;;7289287;19;20200;-78
2023/03/28 01:04:10;;;;;;;14.50;4.97;;;1.70;99.90;;;;;;7290912;19;20291;-77
2023/03/28 01:06:41;;;;;;;12.50;4.30;;;1.70;99.90;;;;;;7288331;19;20195;-77
2023/03/28 01:09:10;;;;;;;15.87;4.60;;;1.70;99.90;;;;;;7286174;19;20638;-77
2023/03/28 01:11:39;;;;;;;18.00;4.67;;;1.80;99.90;;;;;;7289175;19;20460;-78
2023/03/28 01:14:12;;;;;;;14.23;4.70;;;2.00;99.90;;;;;;7287419;19;20215;-77
2023/03/28 01:16:40;;;;;;;15.30;4.50;;;2.00;99.90;;;;;;7289597;19;20275;-78
2023/03/28 01:19:27;;;;;;;15.83;5.03;;;2.20;99.90;;;;;;7289185;19;20193;-78
2023/03/28 01:22:14;;;;;;;15.30;4.60;;;2.30;99.90;;;;;;7289482;19;20184;-78
2023/03/28 01:25:30;;;;;;;15.73;4.20;;;2.30;99.90;;;;;;7188350;19;2004841;-77
2023/03/28 01:28:02;;;;;;;11.47;3.93;;;2.20;99.90;;;;;;7186719;19;2004621;-77
2023/03/28 01:31:09;;;;;;;16.17;4.00;;;2.10;99.90;;;;;;7186286;19;2004843;-77
2023/03/28 01:34:40;;;;;;;16.30;4.33;;;1.90;99.90;;;;;;7082581;19;2004658;-77
2023/03/28 01:37:14;;;;;;;13.80;4.57;;;1.80;99.90;;;;;;7187200;19;2004872;-77
2023/03/28 01:40:23;;;;;;;16.60;5.00;;;1.80;99.90;;;;;;7288736;19;20194;-77
2023/03/28 01:43:28;;;;;;;17.87;4.63;;;1.90;99.90;;;;;;7189902;19;2004779;-78
2023/03/28 01:46:09;;;;;;;13.53;4.87;;;2.00;99.90;;;;;;7186115;19;2004405;-77
2023/03/28 01:48:37;;;;;;;12.63;4.50;;;2.20;99.90;;;;;;7183877;19;2005049;-75
2023/03/28 01:51:17;;;;;;;15.53;4.63;;;2.20;99.90;;;;;;7288464;19;20197;-76
2023/03/28 01:54:01;;;;;;;12.53;3.90;;;2.20;99.90;;;;;;7287289;19;20203;-76
2023/03/28 01:56:38;;;;;;;20.70;4.17;;;2.20;99.90;;;;;;7288813;19;20656;-77
2023/03/28 01:59:26;;;;;;;15.27;4.80;;;2.10;99.90;;;;;;7184350;19;2005083;-76
2023/03/28 02:02:37;;;;;;;20.53;4.27;;;2.00;99.90;;;;;;7185611;19;2004629;-76
2023/03/28 02:05:22;;;;;;;14.70;4.50;;;2.00;99.90;;;;;;7185442;19;2004953;-77
2023/03/28 02:07:53;;;;;;;19.03;3.90;;;2.00;99.90;;;;;;7289324;19;20185;-77
2023/03/28 02:10:30;;;;;;;12.20;4.13;;;2.00;99.90;;;;;;7291571;19;20200;-76
2023/03/28 02:13:08;;;;;;;13.73;3.97;;;2.00;99.90;;;;;;7267459;19;20184;-76
2023/03/28 02:15:49;;;;;;;15.63;4.20;;;1.80;99.90;;;;;;7287333;19;20648;-76
2023/03/28 02:18:54;;;;;;;15.83;4.60;;;1.90;99.90;;;;;;7185016;19;2004584;-76
2023/03/28 02:21:50;;;;;;;17.83;4.60;;;1.90;99.90;;;;;;7182683;19;2005189;-76
2023/03/28 02:24:50;;;;;;;14.87;4.37;;;2.00;99.90;;;;;;7184815;19;2004790;-76
2023/03/28 02:27:50;;;;;;;14.23;4.23;;;2.00;99.90;;;;;;7179928;19;2005132;-77
2023/03/28 02:30:27;;;;;;;13.77;4.60;;;1.80;99.90;;;;;;7288679;19;20190;-77
2023/03/28 02:32:59;;;;;;;16.57;4.27;;;1.90;99.90;;;;;;7286941;19;20542;-77
2023/03/28 02:35:44;;;;;;;14.47;4.40;;;2.00;99.90;;;;;;7285907;19;20676;-77
2023/03/28 02:38:25;;;;;;;11.83;4.10;;;2.10;99.90;;;;;;7183081;19;2004575;-77
2023/03/28 02:41:28;;;;;;;14.40;4.13;;;2.10;99.90;;;;;;7285635;19;20188;-77
2023/03/28 02:44:12;;;;;;;15.87;4.60;;;2.20;99.90;;;;;;7185216;19;2004735;-77
2023/03/28 02:46:46;;;;;;;15.53;4.33;;;2.20;99.90;;;;;;7184437;19;2004635;-77
2023/03/28 02:49:37;;;;;;;19.10;4.70;;;2.30;99.90;;;;;;7284614;19;20625;-77
2023/03/28 02:52:33;;;;;;;18.47;4.70;;;2.20;99.90;;;;;;7183430;19;2004432;-77
2023/03/28 02:55:14;;;;;;;13.90;4.80;;;2.20;99.90;;;;;;7271435;19;20184;-76
2023/03/28 02:58:21;;;;;;;17.33;4.70;;;2.10;99.90;;;;;;7286279;19;20202;-77
2023/03/28 03:00:47;;;;;;;11.13;4.50;;;2.20;99.90;;;;;;7183354;19;2004585;-76
2023/03/28 03:03:15;;;;;;;13.73;4.20;;;2.20;99.90;;;;;;7283466;19;20189;-77
2023/03/28 03:05:41;;;;;;;21.10;5.03;;;2.30;99.90;;;;;;7286032;19;20189;-77
2023/03/28 03:08:07;;;;;;;18.77;4.90;;;2.30;99.90;;;;;;7284043;19;20204;-76
2023/03/28 03:10:34;;;;;;;17.73;4.57;;;2.30;99.90;;;;;;7286107;19;20177;-76
2023/03/28 03:13:00;;;;;;;15.57;4.80;;;2.30;99.90;;;;;;7284571;19;20202;-76
2023/03/28 03:15:29;;;;;;;13.90;4.80;;;2.30;99.90;;;;;;7305528;19;20186;-76
2023/03/28 03:17:57;;;;;;;16.30;5.20;;;2.30;99.90;;;;;;7284722;19;20197;-76
2023/03/28 03:20:32;;;;;;;14.33;4.70;;;2.30;99.90;;;;;;7280575;19;20608;-76
2023/03/28 03:23:00;;;;;;;15.33;5.00;;;2.30;99.90;;;;;;7308408;19;20687;-76
2023/03/28 03:25:30;;;;;;;17.27;4.93;;;2.30;99.90;;;;;;7286299;19;20181;-77
2023/03/28 03:28:05;;;;;;;18.07;5.47;;;2.40;99.90;;;;;;7181605;19;2005371;-76
2023/03/28 03:30:31;;;;;;;19.13;4.90;;;2.30;99.90;;;;;;7284679;19;20191;-76
2023/03/28 03:33:23;;;;;;;14.77;4.33;;;2.30;99.90;;;;;;7285059;19;20252;-76
2023/03/28 03:35:55;;;;;;;13.73;4.80;;;2.20;99.90;;;;;;7284622;19;21059;-76
2023/03/28 03:38:20;;;;;;;14.47;4.77;;;2.10;99.90;;;;;;7284966;19;20203;-77
2023/03/28 03:40:46;;;;;;;19.10;4.50;;;2.00;99.90;;;;;;7284053;19;20191;-77
2023/03/28 03:43:13;;;;;;;16.53;4.97;;;2.00;99.90;;;;;;7284788;19;20189;-77
2023/03/28 03:45:40;;;;;;;17.87;4.80;;;2.00;99.90;;;;;;7282070;19;20189;-76
2023/03/28 03:48:06;;;;;;;15.23;5.03;;;1.90;99.90;;;;;;7284103;19;20205;-76
2023/03/28 03:50:32;;;;;;;16.63;6.00;;;1.90;99.90;;;;;;7285029;19;20258;-76
2023/03/28 03:52:58;;;;;;;16.33;4.97;;;1.80;99.90;;;;;;7301406;19;20192;-76
2023/03/28 03:55:32;;;;;;;18.33;5.70;;;1.70;99.90;;;;;;7283146;19;20197;-76
2023/03/28 03:57:58;;;;;;;19.17;5.40;;;1.70;99.90;;;;;;7305875;19;20621;-77
2023/03/28 04:00:26;;;;;;;14.30;5.63;;;1.60;99.90;;;;;;7284084;19;20648;-77
2023/03/28 04:02:52;;;;;;;13.40;5.30;;;1.50;99.90;;;;;;7283063;19;20219;-77
2023/03/28 04:05:27;;;;;;;14.50;5.27;;;1.50;99.90;;;;;;7284784;19;20185;-77
2023/03/28 04:08:08;;;;;;;17.10;4.87;;;1.50;99.90;;;;;;7181052;19;2004454;-76
2023/03/28 04:10:37;;;;;;;17.33;5.40;;;1.60;99.90;;;;;;7284399;19;20209;-76
2023/03/28 04:13:04;;;;;;;14.13;4.90;;;1.50;99.90;;;;;;7287780;19;20319;-77
2023/03/28 04:15:32;;;;;;;17.80;5.40;;;1.40;99.90;;;;;;7283014;19;20215;-77
2023/03/28 04:18:28;;;;;;;15.43;5.43;;;1.50;99.90;;;;;;7283727;19;20186;-77
2023/03/28 04:20:57;;;;;;;16.87;5.80;;;1.50;99.90;;;;;;7283103;19;20197;-77
2023/03/28 04:23:47;;;;;;;17.30;5.43;;;1.60;99.90;;;;;;7182111;19;2004592;-76
2023/03/28 04:26:34;;;;;;;16.67;5.47;;;1.60;99.90;;;;;;7281547;19;20184;-77
2023/03/28 04:29:04;;;;;;;17.33;5.43;;;1.60;99.90;;;;;;7284078;19;20199;-76
2023/03/28 04:31:34;;;;;;;14.17;5.53;;;1.60;99.90;;;;;;7285678;19;20189;-76
2023/03/28 04:34:32;;;;;;;15.47;6.03;;;1.60;99.90;;;;;;7282089;19;20192;-77
2023/03/28 04:37:07;;;;;;;17.23;5.77;;;1.70;99.90;;;;;;7180594;19;2004547;-76
2023/03/28 04:39:43;;;;;;;20.37;5.90;;;1.80;99.90;;;;;;7282819;19;20637;-77
2023/03/28 04:42:44;;;;;;;16.00;5.63;;;1.80;99.90;;;;;;7180822;19;2004596;-76
2023/03/28 04:45:13;;;;;;;14.93;5.47;;;1.70;99.90;;;;;;7282858;19;20195;-76
2023/03/28 04:47:40;;;;;;;20.00;5.97;;;1.50;99.90;;;;;;7280908;19;20185;-76
2023/03/28 04:50:12;;;;;;;19.03;6.00;;;1.50;99.90;;;;;;7283491;19;20640;-76
2023/03/28 04:52:39;;;;;;;18.87;5.90;;;1.60;99.90;;;;;;7281921;19;20323;-76
2023/03/28 04:55:06;;;;;;;14.00;5.47;;;1.60;99.90;;;;;;7280962;19;20666;-76
2023/03/28 04:57:32;;;;;;;19.73;6.00;;;1.60;99.90;;;;;;7281834;19;20696;-76
2023/03/28 05:00:06;;;;;;;17.53;6.20;;;1.50;99.90;;;;;;7282923;19;20657;-77
2023/03/28 05:02:55;;;;;;;18.40;5.73;;;1.70;99.90;;;;;;7283736;19;20202;-77
2023/03/28 05:05:22;;;;;;;17.00;5.77;;;1.70;99.90;;;;;;7282363;19;20220;-77
2023/03/28 05:07:48;;;;;;;21.20;6.10;;;1.70;99.90;;;;;;7283248;19;20212;-77
2023/03/28 05:10:18;;;;;;;16.93;6.30;;;1.70;99.90;;;;;;7287373;19;20221;-76
2023/03/28 05:12:44;;;;;;;18.37;6.40;;;1.60;99.90;;;;;;7289948;19;20210;-78
2023/03/28 05:15:10;;;;;;;20.47;6.70;;;1.70;99.90;;;;;;7289349;19;20203;-77
2023/03/28 05:17:47;;;;;;;14.87;5.97;;;1.60;99.90;;;;;;7287630;19;20195;-77
2023/03/28 05:20:24;;;;;;;22.10;6.60;;;1.40;99.90;;;;;;7288132;19;20217;-77
2023/03/28 05:22:54;;;;;;;20.80;6.33;;;1.50;99.90;;;;;;7290671;19;20681;-78
2023/03/28 05:25:20;;;;;;;19.47;6.63;;;1.40;99.90;;;;;;7286797;19;20265;-78
2023/03/28 05:27:48;;;;;;;20.70;6.00;;;1.40;99.90;;;;;;7286992;19;20185;-77
2023/03/28 05:30:15;;;;;;;23.43;6.83;;;1.50;99.90;;;;;;7286990;19;20194;-78
2023/03/28 05:32:42;;;;;;;20.20;5.57;;;1.40;99.90;;;;;;7289293;19;20199;-78
2023/03/28 05:35:11;;;;;;;18.97;6.27;;;1.40;99.90;;;;;;7288066;19;20195;-78
2023/03/28 05:37:37;;;;;;;18.03;6.50;;;1.50;99.90;;;;;;7288284;19;20195;-78
2023/03/28 05:40:05;;;;;;;18.60;5.97;;;1.70;99.90;;;;;;7288714;19;20218;-77
2023/03/28 05:42:33;;;;;;;18.80;6.47;;;1.90;99.90;;;;;;7288413;19;20177;-77
2023/03/28 05:45:06;;;;;;;18.33;5.93;;;2.10;99.90;;;;;;7288259;19;20202;-78
2023/03/28 05:47:42;;;;;;;15.47;6.07;;;2.10;99.90;;;;;;7287795;19;20244;-78
2023/03/28 05:50:09;;;;;;;16.83;6.60;;;2.00;99.90;;;;;;7286944;19;20190;-78
2023/03/28 05:52:36;;;;;;;18.60;6.53;;;2.10;99.90;;;;;;7286289;19;20177;-76
2023/03/28 05:55:06;;;;;;;18.03;6.40;;;2.30;99.90;;;;;;7281957;19;20262;-76
2023/03/28 05:57:32;;;;;;;18.97;6.20;;;2.50;99.90;;;;;;7284632;19;20554;-76
2023/03/28 05:59:58;;;;;;;16.97;6.13;;;2.90;99.90;;;;;;7308475;19;20185;-76
2023/03/28 06:02:24;;;;;;;17.97;6.10;;;3.20;99.90;;;;;;7285734;19;20189;-76
2023/03/28 06:04:56;;;;;;;16.80;5.43;;;3.70;99.90;;;;;;7285089;19;20654;-76
2023/03/28 06:07:22;;;;;;;18.50;5.57;;;4.40;99.90;;;;;;7283315;19;20649;-76
2023/03/28 06:09:48;;;;;;;20.03;5.50;;;4.60;99.90;;;;;;7284684;19;20203;-76
2023/03/28 06:12:14;;;;;;;15.30;5.30;;;4.40;99.90;;;;;;7286284;19;20189;-76
2023/03/28 06:14:47;;;;;;;13.57;5.40;;;4.00;99.90;;;;;;7284537;19;20192;-76
2023/03/28 06:17:22;;;;;;;12.80;5.43;;;3.70;99.90;;;;;;7286720;19;20230;-76
2023/03/28 06:19:50;;;;;;;18.53;6.10;;;3.40;99.90;;;;;;7285620;19;20191;-77
2023/03/28 06:22:17;;;;;;;20.53;5.60;;;3.20;99.90;;;;;;7284591;19;20203;-76
2023/03/28 06:24:48;;;;;;;15.87;5.10;;;3.20;99.90;;;;;;7286758;19;20190;-75
2023/03/28 06:27:24;;;;;;;22.73;5.33;;;3.30;99.90;;;;;;7284101;19;20310;-76
2023/03/28 06:29:50;;;;;;;13.73;4.63;;;3.30;99.90;;;;;;7286082;19;20176;-76
2023/03/28 06:32:18;;;;;;;16.70;5.37;;;3.30;99.90;;;;;;7284003;19;20201;-76
2023/03/28 06:34:45;;;;;;;16.37;5.40;;;3.30;99.90;;;;;;7282721;19;20206;-76
2023/03/28 06:37:11;;;;;;;16.03;5.00;;;3.50;99.90;;;;;;7286039;19;20207;-76
2023/03/28 06:39:59;;;;;;;13.53;4.83;;;3.60;99.90;;;;;;7277658;19;20542;-76
2023/03/28 06:42:26;;;;;;;13.73;5.40;;;3.60;99.90;;;;;;7308250;19;20298;-76
2023/03/28 06:45:00;;;;;;;13.37;5.40;;;3.70;99.90;;;;;;7267985;19;20201;-76
2023/03/28 06:47:40;;;;;;;13.20;5.07;;;4.00;99.90;;;;;;7285091;19;20529;-75
2023/03/28 06:50:07;;;;;;;17.10;4.93;;;4.30;99.90;;;;;;7285465;19;20192;-76
2023/03/28 06:52:37;;;;;;;15.30;4.90;;;4.40;99.90;;;;;;7283094;19;20185;-76
2023/03/28 06:55:06;;;;;;;15.57;4.50;;;4.60;99.90;;;;;;7284720;19;20266;-77
2023/03/28 06:57:31;;;;;;;15.47;4.80;;;4.60;99.90;;;;;;7285020;19;20185;-75
2023/03/28 07:00:23;;;;;;;14.00;4.80;;;4.80;99.90;;;;;;7284013;19;20183;-75
2023/03/28 07:03:07;;;;;;;18.43;4.87;;;4.90;99.90;;;;;;7181686;19;2004610;-75
2023/03/28 07:05:38;;;;;;;14.97;5.00;;;5.10;99.90;;;;;;7283639;19;20181;-75
2023/03/28 07:08:05;;;;;;;15.77;4.73;;;5.40;99.90;;;;;;7285282;19;20552;-75
2023/03/28 07:10:31;;;;;;;13.53;4.97;;;5.60;99.90;;;;;;7284955;19;20553;-74
2023/03/28 07:12:57;;;;;;;13.20;4.00;;;6.30;99.90;;;;;;7306636;19;20189;-75
2023/03/28 07:15:22;;;;;;;15.87;5.27;;;6.80;99.90;;;;;;7284427;19;20175;-76
2023/03/28 07:17:49;;;;;;;16.03;4.50;;;7.00;99.90;;;;;;7285626;19;20205;-76
2023/03/28 07:20:15;;;;;;;17.00;4.80;;;7.00;99.90;;;;;;7284809;19;20539;-75
2023/03/28 07:22:40;;;;;;;16.43;4.40;;;6.90;99.90;;;;;;7283322;19;20216;-76
2023/03/28 07:25:07;;;;;;;14.73;4.50;;;7.00;99.90;;;;;;7284082;19;20692;-76
2023/03/28 07:27:33;;;;;;;18.17;4.43;;;7.00;99.90;;;;;;7282572;19;20199;-75
2023/03/28 07:29:59;;;;;;;14.00;3.57;;;6.70;99.90;;;;;;7304221;19;20179;-75
2023/03/28 07:32:25;;;;;;;13.83;3.53;;;6.50;99.90;;;;;;7291956;19;20189;-76
2023/03/28 07:34:51;;;;;;;12.43;3.10;;;6.40;99.90;;;;;;7283062;19;20225;-76
2023/03/28 07:37:20;;;;;;;14.63;3.93;;;6.50;99.90;;;;;;7283806;19;20187;-75
2023/03/28 07:40:06;;;;;;;10.70;3.03;;;6.50;99.90;;;;;;7181350;19;2004595;-76
2023/03/28 07:42:33;;;;;;;12.30;3.17;;;6.60;99.90;;;;;;7280133;19;20271;-76
2023/03/28 07:44:58;;;;;;;16.53;3.37;;;6.60;99.90;;;;;;7306058;19;20223;-75
2023/03/28 07:47:26;;;;;;;11.07;3.00;;;6.60;99.90;;;;;;7283714;19;20730;-76
2023/03/28 07:49:51;;;;;;;9.57;2.70;;;6.70;99.90;;;;;;7282258;19;20215;-77
2023/03/28 07:52:19;;;;;;;12.63;3.13;;;6.50;99.90;;;;;;7283764;19;20189;-78
2023/03/28 07:54:45;;;;;;;12.43;3.33;;;6.60;99.90;;;;;;7282869;19;20193;-76
2023/03/28 07:57:11;;;;;;;14.03;3.00;;;6.70;99.90;;;;;;7282749;19;20185;-76
2023/03/28 07:59:54;;;;;;;19.53;4.77;;;6.60;99.90;;;;;;7282317;19;20204;-76
2023/03/28 08:02:20;;;;;;;14.43;3.50;;;6.50;99.90;;;;;;7281820;19;20665;-77
2023/03/28 08:04:47;;;;;;;12.70;3.20;;;6.60;99.90;;;;;;7283430;19;20189;-74
2023/03/28 08:07:19;;;;;;;13.13;3.03;;;6.70;99.90;;;;;;7283330;19;20640;-75
2023/03/28 08:09:46;;;;;;;10.67;3.23;;;6.80;99.90;;;;;;7283129;19;20807;-77
2023/03/28 08:12:18;;;;;;;14.00;3.30;;;6.80;99.90;;;;;;7282757;19;20661;-76
2023/03/28 08:14:46;;;;;;;11.93;2.87;;;6.90;99.90;;;;;;7281113;19;20180;-77
2023/03/28 08:17:12;;;;;;;10.63;2.90;;;7.00;99.90;;;;;;7282893;19;20245;-77
2023/03/28 08:19:37;;;;;;;11.83;3.07;;;6.90;99.90;;;;;;7281670;19;20744;-77
2023/03/28 08:22:12;;;;;;;13.00;2.90;;;7.10;99.90;;;;;;7283191;19;20545;-75
2023/03/28 08:24:54;;;;;;;12.73;2.80;;;7.20;99.90;;;;;;7283074;19;20183;-76
2023/03/28 08:27:21;;;;;;;12.30;3.13;;;7.50;99.90;;;;;;7281167;19;20273;-76
2023/03/28 08:29:51;;;;;;;12.10;2.73;;;8.00;99.90;;;;;;7282092;19;20214;-76
2023/03/28 08:32:17;;;;;;;14.63;3.00;;;8.10;99.90;;;;;;7282877;19;20196;-76
2023/03/28 08:34:43;;;;;;;15.07;3.00;;;8.00;99.90;;;;;;7282078;19;20182;-76
2023/03/28 08:37:15;;;;;;;12.07;2.77;;;7.70;99.90;;;;;;7282390;19;20648;-77
2023/03/28 08:39:44;;;;;;;11.60;3.20;;;8.20;99.90;;;;;;7282127;19;20196;-76
2023/03/28 08:42:36;;;;;;;14.27;3.33;;;8.50;99.90;;;;;;7283361;19;20218;-77
2023/03/28 08:45:25;;;;;;;11.80;3.00;;;8.70;99.90;;;;;;7267855;19;20185;-77
2023/03/28 08:48:10;;;;;;;10.80;2.70;;;9.30;99.90;;;;;;7287858;19;20189;-77
2023/03/28 08:50:43;;;;;;;11.80;2.97;;;9.40;99.90;;;;;;7184920;19;2004961;-76
2023/03/28 08:53:19;;;;;;;12.27;3.27;;;9.60;99.90;;;;;;7288415;19;20209;-76
2023/03/28 08:55:47;;;;;;;10.60;2.77;;;10.30;99.90;;;;;;7298082;19;20310;-77
2023/03/28 08:58:22;;;;;;;14.83;3.50;;;11.20;99.90;;;;;;7288062;19;20189;-76
2023/03/28 09:00:51;;;;;;;11.10;2.83;;;12.10;99.90;;;;;;7287163;19;20191;-77
2023/03/28 09:03:20;;;;;;;13.07;2.57;;;11.80;99.90;;;;;;7288338;19;20195;-77
2023/03/28 09:05:51;;;;;;;9.37;2.60;;;11.80;99.90;;;;;;7289470;19;20209;-76
2023/03/28 09:08:53;;;;;;;12.73;2.53;;;11.50;99.90;;;;;;7287536;19;20269;-77
2023/03/28 09:11:53;;;;;;;10.87;2.60;;;11.00;99.90;;;;;;7186396;19;2004472;-77
2023/03/28 09:14:35;;;;;;;10.37;2.60;;;11.50;99.90;;;;;;7186348;19;2004656;-77
2023/03/28 09:17:35;;;;;;;9.43;2.70;;;11.40;99.90;;;;;;7266241;19;20254;-77
2023/03/28 09:20:10;;;;;;;10.70;3.00;;;11.40;99.90;;;;;;7267694;19;20297;-76
2023/03/28 09:23:05;;;;;;;10.07;2.80;;;10.70;99.90;;;;;;7287823;19;20244;-77
2023/03/28 09:25:59;;;;;;;10.60;2.40;;;10.50;99.90;;;;;;7185686;19;2004519;-77
2023/03/28 09:28:35;;;;;;;11.47;2.73;;;9.80;99.90;;;;;;7287260;19;20259;-77
2023/03/28 09:31:04;;;;;;;9.00;2.40;;;9.30;99.90;;;;;;7266333;19;20194;-76
2023/03/28 09:33:34;;;;;;;10.20;2.80;;;9.20;99.90;;;;;;7301059;19;20183;-76
2023/03/28 09:36:01;;;;;;;8.37;2.27;;;9.40;99.90;;;;;;7299195;19;20665;-76
2023/03/28 09:38:38;;;;;;;9.27;2.20;;;9.50;99.90;;;;;;7308457;19;20187;-76
2023/03/28 09:41:13;;;;;;;13.10;2.33;;;9.50;99.90;;;;;;7263470;19;20606;-76
2023/03/28 09:43:46;;;;;;;9.57;2.40;;;9.60;99.90;;;;;;7287522;19;20234;-77
2023/03/28 09:46:42;;;;;;;9.33;2.43;;;9.90;99.90;;;;;;7263738;19;20195;-76
2023/03/28 09:49:40;;;;;;;7.37;2.00;;;9.70;99.90;;;;;;7184746;19;2004659;-77
2023/03/28 09:52:15;;;;;;;9.90;2.40;;;9.40;99.90;;;;;;7285870;19;20192;-77
2023/03/28 09:54:41;;;;;;;9.20;2.47;;;9.60;99.90;;;;;;7283997;19;20786;-77
2023/03/28 09:57:07;;;;;;;10.40;2.37;;;10.10;99.90;;;;;;7286288;19;20539;-77
2023/03/28 09:59:47;;;;;;;9.90;2.13;;;10.50;99.90;;;;;;7286088;19;20198;-77
2023/03/28 10:02:24;;;;;;;10.70;2.20;;;10.80;99.90;;;;;;7285884;19;20250;-76
2023/03/28 10:04:52;;;;;;;11.60;3.00;;;11.00;99.90;;;;;;7286251;19;20881;-77
2023/03/28 10:07:33;;;;;;;11.60;4.20;;;11.30;99.90;;;;;;7285889;19;20193;-76
2023/03/28 10:10:39;;;;;;;14.53;4.33;;;11.70;99.90;;;;;;7081668;19;2004566;-77
2023/03/28 10:13:10;;;;;;;11.47;3.00;;;11.30;99.90;;;;;;7285191;19;20188;-76
2023/03/28 10:15:42;;;;;;;8.73;2.47;;;11.30;99.90;;;;;;7283852;19;20187;-76
2023/03/28 10:18:28;;;;;;;9.80;2.50;;;10.70;99.90;;;;;;7287280;19;20593;-77
2023/03/28 10:21:20;;;;;;;8.07;2.40;;;10.30;99.90;;;;;;7182858;19;2005561;-77
2023/03/28 10:24:00;;;;;;;8.10;2.33;;;10.50;99.90;;;;;;7286694;19;20228;-77
2023/03/28 10:26:27;;;;;;;8.63;2.60;;;10.60;99.90;;;;;;7285399;19;20191;-77
2023/03/28 10:28:58;;;;;;;9.37;2.67;;;10.50;99.90;;;;;;7286127;19;20185;-77
2023/03/28 10:31:29;;;;;;;11.03;3.03;;;10.70;99.90;;;;;;7285054;19;20182;-77
2023/03/28 10:34:04;;;;;;;11.67;2.60;;;11.20;99.90;;;;;;7264409;19;20214;-76
2023/03/28 10:36:56;;;;;;;9.03;2.20;;;11.30;99.90;;;;;;7285795;19;20188;-77
2023/03/28 10:39:34;;;;;;;8.00;2.50;;;11.50;99.90;;;;;;7282561;19;20194;-77
2023/03/28 10:42:05;;;;;;;8.53;2.40;;;11.60;99.90;;;;;;7283595;19;20225;-75
2023/03/28 10:44:58;;;;;;;10.63;2.33;;;12.10;99.90;;;;;;7284926;19;20221;-76
2023/03/28 10:47:25;;;;;;;9.07;2.30;;;12.40;99.90;;;;;;7284622;19;20295;-76
2023/03/28 10:49:54;;;;;;;9.43;2.20;;;13.10;99.90;;;;;;7284870;19;20647;-76
2023/03/28 10:52:45;;;;;;;10.63;2.23;;;13.70;99.90;;;;;;7283501;19;20189;-76
2023/03/28 10:55:22;;;;;;;10.17;2.40;;;14.80;99.90;;;;;;7181771;19;2004383;-76
2023/03/28 10:58:32;;;;;;;10.60;2.40;;;14.50;99.90;;;;;;7182847;19;2005136;-75
2023/03/28 11:01:17;;;;;;;7.10;1.93;;;14.40;99.90;;;;;;7265315;19;20184;-74
2023/03/28 11:04:32;;;;;;;9.67;2.07;;;14.70;99.90;;;;;;7262491;19;20644;-75
2023/03/28 11:07:11;;;;;;;9.83;2.10;;;15.20;99.90;;;;;;7265217;19;20751;-76
2023/03/28 11:10:02;;;;;;;8.97;2.13;;;16.30;99.90;;;;;;7278485;19;20186;-76
2023/03/28 11:13:11;;;;;;;8.93;2.20;;;16.20;99.90;;;;;;7283957;19;20700;-76
2023/03/28 11:15:52;;;;;;;10.00;2.50;;;16.60;99.90;;;;;;7180807;19;2004554;-76
2023/03/28 11:18:43;;;;;;;9.70;2.40;;;17.50;99.90;;;;;;7283717;19;20188;-75
2023/03/28 11:21:40;;;;;;;8.30;2.50;;;18.30;99.90;;;;;;7179186;19;2004559;-76
2023/03/28 11:24:29;;;;;;;9.43;2.50;;;16.60;99.90;;;;;;7182312;19;2004922;-76
2023/03/28 11:27:39;;;;;;;7.70;2.30;;;17.00;99.90;;;;;;7182135;19;2004678;-76
2023/03/28 11:30:28;;;;;;;7.93;2.40;;;17.80;99.90;;;;;;7182572;19;2004970;-76
2023/03/28 11:33:36;;;;;;;11.13;2.43;;;17.90;99.90;;;;;;7181581;19;2005776;-76
2023/03/28 11:36:18;;;;;;;8.50;2.40;;;17.10;99.90;;;;;;7182110;19;2004604;-76
2023/03/28 11:39:10;;;;;;;8.37;2.57;;;16.70;99.90;;;;;;7282576;19;20189;-76
2023/03/28 11:41:40;;;;;;;9.60;2.47;;;17.10;99.90;;;;;;7180812;19;2004584;-76
2023/03/28 11:44:30;;;;;;;9.33;2.77;;;17.30;99.90;;;;;;7282933;19;20201;-76
2023/03/28 11:47:03;;;;;;;9.00;2.80;;;17.00;99.90;;;;;;7283459;19;20187;-76
2023/03/28 11:49:38;;;;;;;13.30;2.90;;;17.00;99.90;;;;;;7282785;19;20257;-76
2023/03/28 11:52:24;;;;;;;10.13;2.73;;;16.50;99.90;;;;;;7179319;19;2004832;-76
2023/03/28 11:55:04;;;;;;;7.77;2.30;;;16.50;99.90;;;;;;7282916;19;20265;-75
2023/03/28 11:57:51;;;;;;;7.13;2.43;;;16.40;99.90;;;;;;7272210;19;20177;-75
2023/03/28 12:00:21;;;;;;;8.50;2.53;;;15.60;99.90;;;;;;7282355;19;20186;-76
2023/03/28 12:02:56;;;;;;;6.60;2.20;;;15.40;99.90;;;;;;7281915;19;20187;-75
2023/03/28 12:05:35;;;;;;;10.73;3.03;;;16.10;99.90;;;;;;7282666;19;20569;-76
2023/03/28 12:08:06;;;;;;;10.00;2.60;;;16.80;99.90;;;;;;7261236;19;20181;-76
2023/03/28 12:10:35;;;;;;;10.70;2.60;;;17.10;99.90;;;;;;7282310;19;20222;-76
2023/03/28 12:13:12;;;;;;;10.03;2.93;;;17.50;99.90;;;;;;7281499;19;20186;-76
2023/03/28 12:15:52;;;;;;;8.73;2.40;;;17.10;99.90;;;;;;7281825;19;20203;-76
2023/03/28 12:18:43;;;;;;;8.80;2.17;;;17.10;99.90;;;;;;7285219;19;20208;-77
2023/03/28 12:21:36;;;;;;;8.77;2.43;;;17.40;99.90;;;;;;7185568;19;2004635;-76
2023/03/28 12:24:32;;;;;;;7.37;2.17;;;17.40;99.90;;;;;;7267194;19;20196;-76
2023/03/28 12:27:13;;;;;;;11.83;2.47;;;17.40;99.90;;;;;;7185317;19;2004602;-76
2023/03/28 12:29:50;;;;;;;12.10;2.60;;;17.10;99.90;;;;;;7288191;19;20207;-76
2023/03/28 12:32:41;;;;;;;11.20;2.53;;;16.90;99.90;;;;;;7288019;19;20537;-76
2023/03/28 12:35:49;;;;;;;7.13;1.87;;;16.30;99.90;;;;;;7185356;19;2004487;-76
2023/03/28 12:38:39;;;;;;;8.17;2.20;;;16.00;99.90;;;;;;7186627;19;2004367;-76
2023/03/28 12:41:37;;;;;;;9.83;2.50;;;15.90;99.90;;;;;;7185760;19;2004974;-75
2023/03/28 12:44:16;;;;;;;7.30;2.37;;;15.50;99.90;;;;;;7267091;19;20664;-76
2023/03/28 12:46:54;;;;;;;9.57;2.40;;;15.60;99.90;;;;;;7288134;19;20265;-76
2023/03/28 12:49:33;;;;;;;7.47;2.30;;;15.50;99.90;;;;;;7286856;19;20184;-77
2023/03/28 12:52:05;;;;;;;11.33;2.67;;;15.20;99.90;;;;;;7265550;19;20180;-75
2023/03/28 12:54:51;;;;;;;10.77;2.77;;;15.00;99.90;;;;;;7285752;19;20242;-76
2023/03/28 12:57:39;;;;;;;13.10;2.33;;;15.10;99.90;;;;;;7289183;19;20209;-76
2023/03/28 13:00:24;;;;;;;9.27;2.60;;;15.10;99.90;;;;;;7184336;19;2004468;-76
2023/03/28 13:03:37;;;;;;;8.37;3.20;;;14.60;99.90;;;;;;7186351;19;2004681;-76
2023/03/28 13:06:10;;;;;;;8.90;2.53;;;14.30;99.90;;;;;;7266190;19;20198;-76
2023/03/28 13:09:04;;;;;;;9.70;2.50;;;13.90;99.90;;;;;;7288720;19;20202;-76
2023/03/28 13:11:32;;;;;;;7.57;2.60;;;13.70;99.90;;;;;;7287873;19;20189;-75
2023/03/28 13:14:36;;;;;;;14.03;3.30;;;13.60;99.90;;;;;;7310227;19;20185;-76
2023/03/28 13:17:14;;;;;;;7.93;2.47;;;14.00;99.90;;;;;;7163965;19;2004316;-76
2023/03/28 13:19:45;;;;;;;7.10;2.40;;;14.00;99.90;;;;;;7287248;19;20814;-76
2023/03/28 13:22:29;;;;;;;8.77;2.33;;;14.10;99.90;;;;;;7287211;19;20222;-75
2023/03/28 13:25:24;;;;;;;9.83;2.27;;;14.10;99.90;;;;;;7288659;19;20341;-75
2023/03/28 13:27:54;;;;;;;7.50;2.27;;;13.90;99.90;;;;;;7185213;19;2004606;-75
2023/03/28 13:30:26;;;;;;;8.67;2.43;;;13.70;99.90;;;;;;7285566;19;21937;-75
2023/03/28 13:33:24;;;;;;;11.93;2.90;;;13.50;99.90;;;;;;7287675;19;20196;-75